createdAt,value
2018-03-01T00:00:13.636Z,-5.91
2018-03-01T00:01:13.628Z,-5.95
2018-03-01T00:02:13.647Z,-5.88
2018-03-01T00:03:13.631Z,-5.91
2018-03-01T00:04:13.634Z,-5.85
2018-03-01T00:05:13.627Z,-5.85
2018-03-01T00:06:13.621Z,-5.82
2018-03-01T00:07:13.628Z,-5.81
2018-03-01T00:08:14.516Z,-5.80
2018-03-01T00:09:13.626Z,-5.82
2018-03-01T00:10:13.617Z,-5.81
2018-03-01T00:11:13.627Z,-5.98
2018-03-01T00:12:13.617Z,-5.92
2018-03-01T00:13:13.614Z,-5.84
2018-03-01T00:14:13.615Z,-5.90
2018-03-01T00:15:13.612Z,-5.95
2018-03-01T00:16:13.646Z,-5.95
2018-03-01T00:17:13.601Z,-5.91
2018-03-01T00:18:13.614Z,-5.85
2018-03-01T00:19:13.609Z,-5.87
2018-03-01T00:20:13.620Z,-5.82
2018-03-01T00:21:13.605Z,-5.96
2018-03-01T00:22:13.596Z,-5.87
2018-03-01T00:23:13.598Z,-5.91
2018-03-01T00:24:13.599Z,-5.92
2018-03-01T00:25:13.621Z,-5.84
2018-03-01T00:26:13.595Z,-5.95
2018-03-01T00:27:13.596Z,-5.87
2018-03-01T00:28:13.588Z,-5.88
2018-03-01T00:29:13.657Z,-5.84
2018-03-01T00:30:13.587Z,-5.87
2018-03-01T00:31:13.594Z,-5.84
2018-03-01T00:32:13.584Z,-5.80
2018-03-01T00:33:13.592Z,-5.84
2018-03-01T00:34:13.593Z,-5.82
2018-03-01T00:35:13.581Z,-5.84
2018-03-01T00:36:13.581Z,-5.84
2018-03-01T00:37:13.628Z,-5.82
2018-03-01T00:38:13.563Z,-5.84
2018-03-01T00:39:13.568Z,-5.84
2018-03-01T00:40:13.578Z,-5.87
2018-03-01T00:41:13.568Z,-5.84
2018-03-01T00:42:13.573Z,-5.98
2018-03-01T00:43:13.576Z,-5.85
2018-03-01T00:44:13.565Z,-5.98
2018-03-01T00:45:13.562Z,-5.92
2018-03-01T00:46:13.593Z,-5.82
2018-03-01T00:47:13.560Z,-5.87
2018-03-01T00:48:13.573Z,-5.84
2018-03-01T00:49:13.567Z,-5.91
2018-03-01T00:50:13.561Z,-5.88
2018-03-01T00:51:13.547Z,-5.82
2018-03-01T00:52:13.547Z,-5.92
2018-03-01T00:53:13.548Z,-5.82
2018-03-01T00:54:13.553Z,-5.87
2018-03-01T00:55:13.547Z,-5.90
2018-03-01T00:56:13.545Z,-5.96
2018-03-01T00:57:13.541Z,-5.92
2018-03-01T00:58:13.546Z,-5.92
2018-03-01T00:59:13.538Z,-5.92
2018-03-01T01:00:13.554Z,-5.92
2018-03-01T01:01:13.554Z,-5.98
2018-03-01T01:02:13.574Z,-5.91
2018-03-01T01:03:13.534Z,-5.91
2018-03-01T01:04:13.531Z,-5.87
2018-03-01T01:05:13.527Z,-5.84
2018-03-01T01:06:13.537Z,-5.90
2018-03-01T01:07:13.543Z,-5.82
2018-03-01T01:08:13.523Z,-5.88
2018-03-01T01:09:13.527Z,-5.91
2018-03-01T01:10:13.528Z,-5.90
2018-03-01T01:11:13.552Z,-5.85
2018-03-01T01:12:13.540Z,-5.80
2018-03-01T01:13:13.519Z,-5.88
2018-03-01T01:14:13.507Z,-5.85
2018-03-01T01:15:13.510Z,-5.90
2018-03-01T01:16:13.514Z,-5.88
2018-03-01T01:17:13.538Z,-5.87
2018-03-01T01:18:13.521Z,-5.85
2018-03-01T01:19:13.510Z,-5.91
2018-03-01T01:20:13.539Z,-5.82
2018-03-01T01:21:13.505Z,-5.90
2018-03-01T01:22:13.507Z,-5.77
2018-03-01T01:23:13.515Z,-5.82
2018-03-01T01:24:13.542Z,-5.81
2018-03-01T01:25:13.492Z,-5.73
2018-03-01T01:26:13.490Z,-5.71
2018-03-01T01:27:13.538Z,-5.75
2018-03-01T01:28:13.499Z,-5.80
2018-03-01T01:29:13.503Z,-5.81
2018-03-01T01:30:13.494Z,-5.84
2018-03-01T01:31:13.508Z,-5.73
2018-03-01T01:32:13.489Z,-5.78
2018-03-01T01:33:13.528Z,-5.70
2018-03-01T01:34:13.488Z,-5.71
2018-03-01T01:35:13.499Z,-5.73
2018-03-01T01:36:13.483Z,-5.80
2018-03-01T01:37:13.486Z,-5.92
2018-03-01T01:38:13.475Z,-5.77
2018-03-01T01:39:13.486Z,-5.92
2018-03-01T01:40:13.510Z,-5.91
2018-03-01T01:41:13.480Z,-5.84
2018-03-01T01:42:13.518Z,-5.81
2018-03-01T01:43:13.485Z,-5.81
2018-03-01T01:44:13.472Z,-5.80
2018-03-01T01:45:13.469Z,-5.84
2018-03-01T01:46:13.488Z,-5.92
2018-03-01T01:47:13.469Z,-5.92
2018-03-01T01:48:13.481Z,-5.77
2018-03-01T01:49:13.466Z,-5.90
2018-03-01T01:50:13.457Z,-5.82
2018-03-01T01:51:13.451Z,-5.84
2018-03-01T01:52:13.462Z,-5.75
2018-03-01T01:53:13.454Z,-5.71
2018-03-01T01:54:13.463Z,-5.73
2018-03-01T01:55:13.502Z,-5.77
2018-03-01T01:56:13.448Z,-5.92
2018-03-01T01:57:13.456Z,-5.87
2018-03-01T01:58:13.449Z,-5.90
2018-03-01T01:59:13.467Z,-5.85
2018-03-01T02:00:14.003Z,-5.81
2018-03-01T02:01:13.458Z,-5.81
2018-03-01T02:02:13.437Z,-5.81
2018-03-01T02:03:13.436Z,-5.81
2018-03-01T02:04:13.438Z,-5.90
2018-03-01T02:05:13.435Z,-5.91
2018-03-01T02:06:13.439Z,-5.88
2018-03-01T02:07:13.466Z,-5.90
2018-03-01T02:08:13.426Z,-5.81
2018-03-01T02:09:13.454Z,-5.85
2018-03-01T02:10:13.434Z,-5.95
2018-03-01T02:11:13.434Z,-5.90
2018-03-01T02:12:13.439Z,-5.90
2018-03-01T02:13:13.504Z,-5.91
2018-03-01T02:14:13.419Z,-5.91
2018-03-01T02:15:13.421Z,-5.90
2018-03-01T02:16:13.413Z,-5.85
2018-03-01T02:17:13.411Z,-5.90
2018-03-01T02:18:13.419Z,-5.95
2018-03-01T02:19:13.423Z,-5.91
2018-03-01T02:20:13.416Z,-5.92
2018-03-01T02:21:13.427Z,-5.96
2018-03-01T02:22:13.410Z,-5.90
2018-03-01T02:23:13.411Z,-5.88
2018-03-01T02:24:13.416Z,-5.92
2018-03-01T02:25:13.413Z,-5.90
2018-03-01T02:26:13.411Z,-5.90
2018-03-01T02:27:13.406Z,-5.90
2018-03-01T02:28:13.400Z,-5.91
2018-03-01T02:29:13.396Z,-5.92
2018-03-01T02:30:13.396Z,-5.90
2018-03-01T02:31:13.403Z,-5.95
2018-03-01T02:32:13.388Z,-5.84
2018-03-01T02:33:13.410Z,-5.85
2018-03-01T02:34:13.394Z,-5.87
2018-03-01T02:35:13.401Z,-5.92
2018-03-01T02:36:13.393Z,-5.91
2018-03-01T02:37:13.395Z,-5.88
2018-03-01T02:38:13.403Z,-5.91
2018-03-01T02:39:13.376Z,-5.91
2018-03-01T02:40:13.386Z,-6.02
2018-03-01T02:41:13.381Z,-5.90
2018-03-01T02:42:13.388Z,-6.05
2018-03-01T02:43:13.387Z,-5.92
2018-03-01T02:44:13.394Z,-5.88
2018-03-01T02:45:13.380Z,-6.03
2018-03-01T02:46:13.408Z,-5.99
2018-03-01T02:47:13.388Z,-6.06
2018-03-01T02:48:13.415Z,-5.95
2018-03-01T02:49:13.404Z,-6.02
2018-03-01T02:50:13.369Z,-6.05
2018-03-01T02:51:13.359Z,-6.02
2018-03-01T02:52:13.358Z,-6.02
2018-03-01T02:53:13.357Z,-6.08
2018-03-01T02:54:13.374Z,-6.02
2018-03-01T02:55:13.369Z,-6.05
2018-03-01T02:56:13.357Z,-6.02
2018-03-01T02:57:13.388Z,-6.03
2018-03-01T02:58:13.399Z,-6.14
2018-03-01T02:59:13.356Z,-6.08
2018-03-01T03:00:13.378Z,-6.13
2018-03-01T03:01:13.373Z,-6.10
2018-03-01T03:02:13.351Z,-6.09
2018-03-01T03:03:13.385Z,-6.09
2018-03-01T03:04:13.359Z,-6.17
2018-03-01T03:05:13.347Z,-6.10
2018-03-01T03:06:13.336Z,-6.02
2018-03-01T03:07:13.353Z,-6.10
2018-03-01T03:08:13.349Z,-6.09
2018-03-01T03:09:13.343Z,-6.10
2018-03-01T03:10:13.355Z,-6.10
2018-03-01T03:11:13.340Z,-6.13
2018-03-01T03:12:13.330Z,-6.14
2018-03-01T03:13:13.368Z,-6.03
2018-03-01T03:14:13.317Z,-6.10
2018-03-01T03:15:13.326Z,-6.14
2018-03-01T03:16:13.343Z,-5.99
2018-03-01T03:17:13.375Z,-6.08
2018-03-01T03:18:13.333Z,-6.14
2018-03-01T03:19:13.327Z,-6.10
2018-03-01T03:20:13.318Z,-6.03
2018-03-01T03:21:13.315Z,-6.13
2018-03-01T03:22:13.327Z,-6.09
2018-03-01T03:23:13.315Z,-6.10
2018-03-01T03:24:13.339Z,-6.10
2018-03-01T03:25:13.299Z,-6.09
2018-03-01T03:26:13.302Z,-6.10
2018-03-01T03:27:13.317Z,-5.99
2018-03-01T03:28:13.307Z,-6.06
2018-03-01T03:29:13.305Z,-6.10
2018-03-01T03:30:13.330Z,-6.03
2018-03-01T03:31:13.300Z,-6.03
2018-03-01T03:32:13.308Z,-6.09
2018-03-01T03:33:13.292Z,-6.13
2018-03-01T03:34:13.291Z,-6.08
2018-03-01T03:35:13.300Z,-6.06
2018-03-01T03:36:13.290Z,-6.13
2018-03-01T03:37:13.285Z,-6.08
2018-03-01T03:38:13.279Z,-6.14
2018-03-01T03:39:13.285Z,-6.20
2018-03-01T03:40:13.284Z,-6.14
2018-03-01T03:41:13.285Z,-6.05
2018-03-01T03:42:13.286Z,-6.03
2018-03-01T03:43:13.269Z,-6.19
2018-03-01T03:44:13.389Z,-6.20
2018-03-01T03:45:13.288Z,-6.19
2018-03-01T03:46:13.285Z,-6.21
2018-03-01T03:47:13.288Z,-6.23
2018-03-01T03:48:13.266Z,-6.21
2018-03-01T03:49:13.259Z,-6.21
2018-03-01T03:50:13.266Z,-6.20
2018-03-01T03:51:13.261Z,-6.06
2018-03-01T03:52:13.262Z,-6.13
2018-03-01T03:53:13.356Z,-6.05
2018-03-01T03:54:13.257Z,-6.14
2018-03-01T03:55:13.255Z,-6.05
2018-03-01T03:56:13.259Z,-6.03
2018-03-01T03:57:13.251Z,-6.09
2018-03-01T03:58:13.251Z,-6.06
2018-03-01T03:59:13.247Z,-6.08
2018-03-01T04:00:13.260Z,-6.13
2018-03-01T04:01:13.246Z,-6.02
2018-03-01T04:02:13.248Z,-6.08
2018-03-01T04:03:13.292Z,-6.02
2018-03-01T04:04:13.236Z,-6.02
2018-03-01T04:05:13.242Z,-6.02
2018-03-01T04:06:13.242Z,-6.03
2018-03-01T04:07:13.236Z,-6.00
2018-03-01T04:08:13.233Z,-6.03
2018-03-01T04:09:13.257Z,-6.02
2018-03-01T04:10:13.236Z,-5.96
2018-03-01T04:11:13.228Z,-6.02
2018-03-01T04:12:13.237Z,-5.96
2018-03-01T04:13:13.979Z,-6.06
2018-03-01T04:14:13.228Z,-6.02
2018-03-01T04:15:13.223Z,-5.87
2018-03-01T04:16:13.217Z,-6.02
2018-03-01T04:17:13.213Z,-5.99
2018-03-01T04:18:13.219Z,-6.00
2018-03-01T04:19:13.214Z,-6.03
2018-03-01T04:20:13.254Z,-6.02
2018-03-01T04:21:13.212Z,-6.05
2018-03-01T04:22:13.201Z,-5.99
2018-03-01T04:23:13.215Z,-6.03
2018-03-01T04:24:13.209Z,-6.02
2018-03-01T04:25:13.214Z,-6.02
2018-03-01T04:26:13.209Z,-6.02
2018-03-01T04:27:13.196Z,-6.03
2018-03-01T04:28:13.194Z,-6.06
2018-03-01T04:29:13.196Z,-6.14
2018-03-01T04:30:13.204Z,-6.08
2018-03-01T04:31:13.201Z,-6.09
2018-03-01T04:32:13.190Z,-6.02
2018-03-01T04:33:13.187Z,-6.02
2018-03-01T04:34:13.194Z,-6.02
2018-03-01T04:35:13.190Z,-6.05
2018-03-01T04:36:13.192Z,-6.02
2018-03-01T04:37:13.182Z,-6.08
2018-03-01T04:38:13.183Z,-6.06
2018-03-01T04:39:13.179Z,-6.05
2018-03-01T04:40:13.174Z,-6.05
2018-03-01T04:41:13.180Z,-6.06
2018-03-01T04:42:13.171Z,-6.03
2018-03-01T04:43:13.167Z,-5.99
2018-03-01T04:44:13.976Z,-5.99
2018-03-01T04:45:13.176Z,-5.91
2018-03-01T04:46:13.169Z,-5.91
2018-03-01T04:47:13.170Z,-5.87
2018-03-01T04:48:13.171Z,-5.95
2018-03-01T04:49:13.185Z,-5.87
2018-03-01T04:50:13.160Z,-6.02
2018-03-01T04:51:13.154Z,-5.90
2018-03-01T04:52:13.157Z,-5.88
2018-03-01T04:53:13.162Z,-6.03
2018-03-01T04:54:13.165Z,-5.96
2018-03-01T04:55:13.157Z,-5.99
2018-03-01T04:56:13.168Z,-5.96
2018-03-01T04:57:13.151Z,-5.99
2018-03-01T04:58:13.148Z,-6.03
2018-03-01T04:59:13.162Z,-6.05
2018-03-01T05:00:13.170Z,-6.00
2018-03-01T05:01:13.164Z,-6.06
2018-03-01T05:02:13.155Z,-5.88
2018-03-01T05:03:13.138Z,-5.88
2018-03-01T05:04:13.138Z,-5.92
2018-03-01T05:05:13.136Z,-5.95
2018-03-01T05:06:13.144Z,-5.90
2018-03-01T05:07:13.156Z,-5.95
2018-03-01T05:08:13.125Z,-5.88
2018-03-01T05:09:13.136Z,-5.80
2018-03-01T05:10:13.247Z,-5.87
2018-03-01T05:11:13.175Z,-5.87
2018-03-01T05:12:13.163Z,-5.90
2018-03-01T05:13:13.141Z,-5.90
2018-03-01T05:14:13.126Z,-5.87
2018-03-01T05:15:13.158Z,-5.88
2018-03-01T05:16:13.155Z,-5.96
2018-03-01T05:17:13.107Z,-5.92
2018-03-01T05:18:13.135Z,-5.91
2018-03-01T05:19:13.116Z,-5.91
2018-03-01T05:20:13.129Z,-5.98
2018-03-01T05:21:13.109Z,-5.80
2018-03-01T05:22:13.144Z,-5.90
2018-03-01T05:23:13.110Z,-5.88
2018-03-01T05:24:13.123Z,-5.95
2018-03-01T05:25:13.113Z,-6.06
2018-03-01T05:26:13.104Z,-5.91
2018-03-01T05:27:13.101Z,-6.03
2018-03-01T05:28:13.098Z,-5.92
2018-03-01T05:29:13.107Z,-5.85
2018-03-01T05:30:13.094Z,-5.95
2018-03-01T05:31:13.114Z,-5.85
2018-03-01T05:32:13.102Z,-5.85
2018-03-01T05:33:13.100Z,-5.85
2018-03-01T05:34:13.093Z,-5.90
2018-03-01T05:35:13.088Z,-5.82
2018-03-01T05:36:13.080Z,-5.90
2018-03-01T05:37:13.088Z,-5.87
2018-03-01T05:38:13.082Z,-5.91
2018-03-01T05:39:13.074Z,-5.87
2018-03-01T05:40:13.078Z,-5.80
2018-03-01T05:41:13.091Z,-5.78
2018-03-01T05:42:13.074Z,-5.84
2018-03-01T05:43:13.076Z,-5.90
2018-03-01T05:44:13.116Z,-5.80
2018-03-01T05:45:13.116Z,-5.75
2018-03-01T05:46:13.080Z,-5.78
2018-03-01T05:47:13.081Z,-5.81
2018-03-01T05:48:13.068Z,-5.81
2018-03-01T05:49:13.135Z,-5.98
2018-03-01T05:50:13.065Z,-5.87
2018-03-01T05:51:13.059Z,-5.85
2018-03-01T05:52:13.065Z,-5.80
2018-03-01T05:53:13.069Z,-5.82
2018-03-01T05:54:13.059Z,-5.88
2018-03-01T05:55:13.060Z,-5.77
2018-03-01T05:56:13.069Z,-5.80
2018-03-01T05:57:13.107Z,-5.78
2018-03-01T05:58:13.050Z,-5.73
2018-03-01T05:59:13.053Z,-5.75
2018-03-01T06:00:13.048Z,-5.75
2018-03-01T06:01:13.045Z,-5.69
2018-03-01T06:02:13.050Z,-5.73
2018-03-01T06:03:13.044Z,-5.88
2018-03-01T06:04:13.044Z,-5.73
2018-03-01T06:05:13.052Z,-5.77
2018-03-01T06:06:13.053Z,-5.69
2018-03-01T06:07:13.051Z,-5.75
2018-03-01T06:08:13.039Z,-5.66
2018-03-01T06:09:13.040Z,-5.71
2018-03-01T06:10:13.032Z,-5.75
2018-03-01T06:11:13.040Z,-5.63
2018-03-01T06:12:13.040Z,-5.75
2018-03-01T06:13:13.065Z,-5.71
2018-03-01T06:14:13.029Z,-5.64
2018-03-01T06:15:13.026Z,-5.60
2018-03-01T06:16:13.020Z,-5.64
2018-03-01T06:17:13.025Z,-5.67
2018-03-01T06:18:13.041Z,-5.69
2018-03-01T06:19:13.020Z,-5.66
2018-03-01T06:20:13.032Z,-5.69
2018-03-01T06:21:13.017Z,-5.70
2018-03-01T06:22:13.098Z,-5.69
2018-03-01T06:23:13.025Z,-5.66
2018-03-01T06:24:13.022Z,-5.69
2018-03-01T06:25:13.040Z,-5.64
2018-03-01T06:26:13.009Z,-5.63
2018-03-01T06:27:13.014Z,-5.55
2018-03-01T06:28:12.996Z,-5.63
2018-03-01T06:29:13.016Z,-5.66
2018-03-01T06:30:13.021Z,-5.63
2018-03-01T06:31:13.016Z,-5.70
2018-03-01T06:32:13.029Z,-5.59
2018-03-01T06:33:13.034Z,-5.57
2018-03-01T06:34:13.011Z,-5.59
2018-03-01T06:35:13.006Z,-5.59
2018-03-01T06:36:13.002Z,-5.63
2018-03-01T06:37:12.995Z,-5.52
2018-03-01T06:38:12.993Z,-5.55
2018-03-01T06:39:12.993Z,-5.48
2018-03-01T06:40:12.992Z,-5.59
2018-03-01T06:41:12.992Z,-5.53
2018-03-01T06:42:12.995Z,-5.52
2018-03-01T06:43:13.002Z,-5.43
2018-03-01T06:44:13.037Z,-5.48
2018-03-01T06:45:12.986Z,-5.52
2018-03-01T06:46:12.989Z,-5.52
2018-03-01T06:47:12.985Z,-5.46
2018-03-01T06:48:12.976Z,-5.46
2018-03-01T06:49:13.043Z,-5.48
2018-03-01T06:50:12.995Z,-5.38
2018-03-01T06:51:12.978Z,-5.41
2018-03-01T06:52:12.982Z,-5.33
2018-03-01T06:53:13.023Z,-5.31
2018-03-01T06:54:12.992Z,-5.30
2018-03-01T06:55:13.003Z,-5.31
2018-03-01T06:56:12.982Z,-5.27
2018-03-01T06:57:12.986Z,-5.33
2018-03-01T06:58:13.002Z,-5.39
2018-03-01T06:59:12.970Z,-5.31
2018-03-01T07:00:12.962Z,-5.31
2018-03-01T07:01:12.970Z,-5.28
2018-03-01T07:02:12.982Z,-5.35
2018-03-01T07:03:12.967Z,-5.23
2018-03-01T07:04:12.962Z,-5.33
2018-03-01T07:05:12.960Z,-5.35
2018-03-01T07:06:12.965Z,-5.49
2018-03-01T07:07:12.976Z,-5.51
2018-03-01T07:08:12.960Z,-5.48
2018-03-01T07:09:12.959Z,-5.43
2018-03-01T07:10:12.967Z,-5.48
2018-03-01T07:11:13.039Z,-5.31
2018-03-01T07:12:12.954Z,-5.30
2018-03-01T07:13:12.945Z,-5.34
2018-03-01T07:14:12.979Z,-5.34
2018-03-01T07:15:13.011Z,-5.35
2018-03-01T07:16:12.953Z,-5.34
2018-03-01T07:17:12.950Z,-5.28
2018-03-01T07:18:12.951Z,-5.31
2018-03-01T07:19:12.956Z,-5.34
2018-03-01T07:20:12.942Z,-5.30
2018-03-01T07:21:12.954Z,-5.27
2018-03-01T07:22:12.942Z,-5.25
2018-03-01T07:23:12.944Z,-5.17
2018-03-01T07:24:12.941Z,-5.17
2018-03-01T07:25:12.963Z,-5.17
2018-03-01T07:26:12.943Z,-5.24
2018-03-01T07:27:12.943Z,-5.12
2018-03-01T07:28:13.010Z,-5.20
2018-03-01T07:29:12.960Z,-5.21
2018-03-01T07:30:12.946Z,-5.20
2018-03-01T07:31:12.942Z,-5.20
2018-03-01T07:32:12.943Z,-5.06
2018-03-01T07:33:12.948Z,-5.06
2018-03-01T07:34:12.939Z,-5.02
2018-03-01T07:35:12.951Z,-4.99
2018-03-01T07:36:12.926Z,-5.02
2018-03-01T07:37:12.948Z,-5.01
2018-03-01T07:38:12.929Z,-5.03
2018-03-01T07:39:12.957Z,-5.02
2018-03-01T07:40:12.961Z,-4.94
2018-03-01T07:41:12.932Z,-4.94
2018-03-01T07:42:12.918Z,-4.84
2018-03-01T07:43:12.976Z,-4.76
2018-03-01T07:44:12.953Z,-4.59
2018-03-01T07:45:12.957Z,-4.54
2018-03-01T07:46:12.980Z,-4.37
2018-03-01T07:47:12.937Z,-4.37
2018-03-01T07:48:12.943Z,-4.34
2018-03-01T07:49:12.937Z,-4.31
2018-03-01T07:50:13.104Z,-4.13
2018-03-01T07:51:12.952Z,-3.92
2018-03-01T07:52:12.970Z,-3.89
2018-03-01T07:53:12.934Z,-3.76
2018-03-01T07:54:12.935Z,-3.74
2018-03-01T07:55:12.938Z,-3.57
2018-03-01T07:56:12.961Z,-3.51
2018-03-01T07:57:12.970Z,-3.58
2018-03-01T07:58:12.936Z,-3.57
2018-03-01T07:59:13.071Z,-3.54
2018-03-01T08:00:12.954Z,-3.43
2018-03-01T08:01:12.946Z,-3.44
2018-03-01T08:02:12.962Z,-3.39
2018-03-01T08:03:12.969Z,-3.18
2018-03-01T08:04:12.969Z,-3.16
2018-03-01T08:05:12.956Z,-2.95
2018-03-01T08:06:12.968Z,-2.72
2018-03-01T08:07:12.967Z,-2.58
2018-03-01T08:08:12.977Z,-2.64
2018-03-01T08:09:12.978Z,-2.55
2018-03-01T08:10:13.005Z,-2.50
2018-03-01T08:11:12.997Z,-2.37
2018-03-01T08:12:13.017Z,-2.38
2018-03-01T08:13:13.016Z,-2.33
2018-03-01T08:14:13.020Z,-2.14
2018-03-01T08:15:13.043Z,-2.07
2018-03-01T08:16:13.018Z,-2.10
2018-03-01T08:17:13.017Z,-2.06
2018-03-01T08:18:13.026Z,-1.93
2018-03-01T08:19:13.030Z,-1.72
2018-03-01T08:20:13.056Z,-1.68
2018-03-01T08:21:13.053Z,-1.59
2018-03-01T08:22:13.144Z,-1.65
2018-03-01T08:23:13.053Z,-1.89
2018-03-01T08:24:13.062Z,-2.08
2018-03-01T08:25:13.064Z,-2.40
2018-03-01T08:26:13.077Z,-2.33
2018-03-01T08:27:13.069Z,-2.19
2018-03-01T08:28:13.071Z,-2.16
2018-03-01T08:29:13.084Z,-2.11
2018-03-01T08:30:13.187Z,-1.88
2018-03-01T08:31:13.084Z,-1.65
2018-03-01T08:32:13.101Z,-1.62
2018-03-01T08:33:13.100Z,-1.41
2018-03-01T08:34:13.105Z,-1.13
2018-03-01T08:35:13.127Z,-0.97
2018-03-01T08:36:13.118Z,-1.18
2018-03-01T08:37:13.131Z,-1.13
2018-03-01T08:38:13.140Z,-1.15
2018-03-01T08:39:13.133Z,-1.13
2018-03-01T08:40:13.244Z,-1.15
2018-03-01T08:41:13.145Z,-1.11
2018-03-01T08:42:13.159Z,-1.05
2018-03-01T08:43:13.168Z,-0.90
2018-03-01T08:44:13.162Z,-0.63
2018-03-01T08:45:13.171Z,-0.53
2018-03-01T08:46:13.192Z,-0.39
2018-03-01T08:47:13.201Z,-0.42
2018-03-01T08:48:13.192Z,-0.39
2018-03-01T08:49:13.193Z,-0.01
2018-03-01T08:50:13.204Z,0.16
2018-03-01T08:51:13.201Z,0.22
2018-03-01T08:52:13.219Z,0.12
2018-03-01T08:53:13.246Z,0.12
2018-03-01T08:54:13.242Z,0.22
2018-03-01T08:55:13.243Z,0.35
2018-03-01T08:56:13.248Z,0.33
2018-03-01T08:57:13.245Z,0.22
2018-03-01T08:58:13.273Z,0.08
2018-03-01T08:59:13.271Z,0.20
2018-03-01T09:00:13.282Z,0.10
2018-03-01T09:01:13.286Z,0.08
2018-03-01T09:02:13.296Z,0.25
2018-03-01T09:03:13.355Z,0.34
2018-03-01T09:04:13.313Z,0.59
2018-03-01T09:05:13.315Z,0.81
2018-03-01T09:06:13.324Z,0.93
2018-03-01T09:07:13.340Z,1.06
2018-03-01T09:08:13.346Z,1.10
2018-03-01T09:09:13.350Z,1.28
2018-03-01T09:10:13.370Z,1.44
2018-03-01T09:11:13.380Z,1.34
2018-03-01T09:12:13.435Z,1.28
2018-03-01T09:13:13.380Z,1.43
2018-03-01T09:14:13.401Z,1.71
2018-03-01T09:15:13.404Z,1.75
2018-03-01T09:16:13.412Z,2.07
2018-03-01T09:17:13.427Z,2.00
2018-03-01T09:18:13.428Z,1.57
2018-03-01T09:19:13.441Z,1.85
2018-03-01T09:20:13.441Z,1.43
2018-03-01T09:21:13.458Z,1.32
2018-03-01T09:22:13.465Z,1.34
2018-03-01T09:23:13.468Z,1.46
2018-03-01T09:24:13.492Z,1.72
2018-03-01T09:25:13.523Z,1.95
2018-03-01T09:26:13.499Z,1.90
2018-03-01T09:27:13.522Z,1.64
2018-03-01T09:28:13.525Z,1.60
2018-03-01T09:29:13.536Z,1.75
2018-03-01T09:30:13.563Z,2.25
2018-03-01T09:31:13.560Z,2.36
2018-03-01T09:32:13.565Z,2.66
2018-03-01T09:33:13.570Z,2.59
2018-03-01T09:34:13.582Z,2.59
2018-03-01T09:35:13.589Z,2.51
2018-03-01T09:36:13.595Z,2.40
2018-03-01T09:37:13.763Z,2.40
2018-03-01T09:38:13.621Z,2.23
2018-03-01T09:39:13.627Z,2.02
2018-03-01T09:40:13.635Z,2.11
2018-03-01T09:41:13.646Z,2.20
2018-03-01T09:42:13.663Z,2.41
2018-03-01T09:43:13.665Z,2.65
2018-03-01T09:44:13.712Z,3.02
2018-03-01T09:45:13.689Z,2.94
2018-03-01T09:46:13.696Z,2.61
2018-03-01T09:47:13.710Z,2.12
2018-03-01T09:48:14.293Z,1.77
2018-03-01T09:49:13.726Z,1.74
2018-03-01T09:50:13.735Z,1.86
2018-03-01T09:51:13.746Z,2.25
2018-03-01T09:52:13.754Z,2.50
2018-03-01T09:53:13.761Z,2.92
2018-03-01T09:54:13.774Z,3.31
2018-03-01T09:55:13.793Z,3.67
2018-03-01T09:56:13.780Z,3.68
2018-03-01T09:57:13.803Z,4.16
2018-03-01T09:58:13.815Z,4.17
2018-03-01T09:59:13.821Z,3.89
2018-03-01T10:00:13.831Z,3.89
2018-03-01T10:01:13.847Z,3.80
2018-03-01T10:02:13.855Z,3.72
2018-03-01T10:03:13.876Z,3.77
2018-03-01T10:04:13.869Z,4.00
2018-03-01T10:05:13.879Z,4.39
2018-03-01T10:06:14.216Z,4.47
2018-03-01T10:07:13.946Z,4.69
2018-03-01T10:08:13.974Z,5.06
2018-03-01T10:09:13.921Z,5.04
2018-03-01T10:10:13.924Z,5.14
2018-03-01T10:11:13.949Z,5.08
2018-03-01T10:12:13.940Z,4.84
2018-03-01T10:13:13.958Z,4.61
2018-03-01T10:14:14.015Z,4.75
2018-03-01T10:15:13.993Z,4.74
2018-03-01T10:16:14.029Z,4.80
2018-03-01T10:18:14.181Z,4.42
2018-03-01T10:21:14.060Z,4.69
2018-03-01T10:22:14.429Z,4.75
2018-03-01T10:23:15.043Z,4.96
2018-03-01T10:24:14.088Z,5.24
2018-03-01T10:25:14.093Z,5.48
2018-03-01T10:27:14.707Z,5.63
2018-03-01T10:28:14.122Z,5.75
2018-03-01T10:29:14.247Z,5.70
2018-03-01T10:30:14.727Z,5.98
2018-03-01T10:31:14.254Z,5.83
2018-03-01T10:32:14.167Z,6.25
2018-03-01T10:33:14.242Z,6.53
2018-03-01T10:34:14.195Z,6.48
2018-03-01T10:35:14.611Z,6.65
2018-03-01T10:36:14.207Z,6.87
2018-03-01T10:37:14.220Z,6.39
2018-03-01T10:38:14.230Z,6.10
2018-03-01T10:39:14.245Z,5.92
2018-03-01T10:40:14.262Z,6.43
2018-03-01T10:41:14.262Z,6.57
2018-03-01T10:42:14.275Z,6.73
2018-03-01T10:43:14.296Z,7.21
2018-03-01T10:44:14.322Z,7.45
2018-03-01T10:45:14.341Z,7.62
2018-03-01T10:46:14.326Z,7.44
2018-03-01T10:47:14.374Z,7.74
2018-03-01T10:49:14.686Z,8.13
2018-03-01T10:50:14.373Z,8.24
2018-03-01T10:51:14.606Z,8.03
2018-03-01T10:52:14.401Z,8.27
2018-03-01T10:53:14.407Z,8.39
2018-03-01T10:54:14.762Z,8.61
2018-03-01T10:55:14.443Z,9.13
2018-03-01T10:56:14.442Z,8.68
2018-03-01T10:57:14.457Z,8.25
2018-03-01T10:58:14.475Z,7.94
2018-03-01T10:59:14.526Z,8.04
2018-03-01T11:00:14.512Z,7.79
2018-03-01T11:01:14.503Z,7.73
2018-03-01T11:03:14.967Z,7.67
2018-03-01T11:04:14.638Z,7.34
2018-03-01T11:05:14.744Z,7.47
2018-03-01T11:06:14.805Z,7.99
2018-03-01T11:07:14.584Z,8.61
2018-03-01T11:08:14.624Z,8.94
2018-03-01T11:09:17.040Z,8.88
2018-03-01T11:10:14.615Z,8.40
2018-03-01T11:11:14.629Z,8.91
2018-03-01T11:13:14.649Z,9.80
2018-03-01T11:14:14.666Z,10.02
2018-03-01T11:15:14.684Z,10.09
2018-03-01T11:16:14.713Z,10.34
2018-03-01T11:17:14.715Z,10.78
2018-03-01T11:18:14.707Z,10.62
2018-03-01T11:19:14.737Z,10.75
2018-03-01T11:22:14.763Z,11.78
2018-03-01T11:23:14.782Z,12.19
2018-03-01T11:24:14.786Z,11.66
2018-03-01T11:25:14.801Z,11.19
2018-03-01T11:26:14.805Z,10.49
2018-03-01T11:27:14.824Z,10.20
2018-03-01T11:28:14.849Z,10.11
2018-03-01T11:29:14.894Z,9.15
2018-03-01T11:30:15.190Z,8.21
2018-03-01T11:31:14.877Z,8.28
2018-03-01T11:32:14.891Z,8.57
2018-03-01T11:33:14.901Z,8.82
2018-03-01T11:34:14.922Z,9.37
2018-03-01T11:35:14.925Z,9.17
2018-03-01T11:36:14.935Z,9.41
2018-03-01T11:37:14.954Z,9.70
2018-03-01T11:38:14.956Z,9.65
2018-03-01T11:39:14.976Z,9.89
2018-03-01T11:40:15.009Z,10.01
2018-03-01T11:41:15.045Z,9.55
2018-03-01T11:42:15.022Z,9.23
2018-03-01T11:43:15.029Z,8.03
2018-03-01T11:44:15.089Z,7.89
2018-03-01T11:45:15.052Z,7.44
2018-03-01T11:46:15.072Z,7.94
2018-03-01T11:47:15.091Z,8.02
2018-03-01T11:48:15.084Z,7.76
2018-03-01T11:49:15.102Z,7.39
2018-03-01T11:50:15.115Z,7.47
2018-03-01T11:51:15.165Z,7.51
2018-03-01T11:52:15.153Z,7.19
2018-03-01T11:53:15.173Z,7.47
2018-03-01T11:54:15.446Z,8.03
2018-03-01T11:55:15.164Z,8.36
2018-03-01T11:56:15.174Z,8.79
2018-03-01T11:57:15.183Z,8.75
2018-03-01T11:58:15.199Z,9.35
2018-03-01T11:59:15.278Z,9.04
2018-03-01T12:00:15.278Z,9.06
2018-03-01T12:01:15.240Z,9.06
2018-03-01T12:02:15.242Z,8.96
2018-03-01T12:03:15.249Z,9.00
2018-03-01T12:04:15.262Z,9.24
2018-03-01T12:05:15.276Z,9.42
2018-03-01T12:06:15.288Z,9.50
2018-03-01T12:07:15.303Z,9.53
2018-03-01T12:08:15.317Z,9.85
2018-03-01T12:09:15.363Z,10.18
2018-03-01T12:10:15.334Z,10.49
2018-03-01T12:11:15.357Z,10.55
2018-03-01T12:12:15.389Z,10.51
2018-03-01T12:13:15.390Z,10.93
2018-03-01T12:14:15.391Z,11.05
2018-03-01T12:15:15.409Z,11.03
2018-03-01T12:16:15.407Z,10.87
2018-03-01T12:17:15.418Z,11.39
2018-03-01T12:18:15.442Z,11.53
2018-03-01T12:19:15.435Z,11.97
2018-03-01T12:20:15.449Z,11.90
2018-03-01T12:21:15.472Z,11.44
2018-03-01T12:22:15.488Z,11.02
2018-03-01T12:24:15.505Z,11.48
2018-03-01T12:25:15.528Z,11.70
2018-03-01T12:26:15.527Z,11.62
2018-03-01T12:27:15.560Z,11.46
2018-03-01T12:28:15.557Z,11.64
2018-03-01T12:29:15.567Z,11.77
2018-03-01T12:30:15.614Z,11.60
2018-03-01T12:31:15.612Z,12.21
2018-03-01T12:32:15.597Z,12.70
2018-03-01T12:33:15.635Z,12.34
2018-03-01T12:34:15.640Z,11.30
2018-03-01T12:35:15.653Z,11.33
2018-03-01T12:36:15.658Z,11.20
2018-03-01T12:37:15.676Z,10.58
2018-03-01T12:38:15.681Z,10.65
2018-03-01T12:39:15.702Z,9.93
2018-03-01T12:40:15.706Z,9.95
2018-03-01T12:42:15.785Z,10.78
2018-03-01T12:43:15.752Z,10.95
2018-03-01T12:44:15.759Z,11.35
2018-03-01T12:45:15.815Z,11.27
2018-03-01T12:46:15.794Z,10.95
2018-03-01T12:47:15.797Z,11.05
2018-03-01T12:48:15.824Z,10.47
2018-03-01T12:49:15.828Z,10.52
2018-03-01T12:51:15.884Z,11.41
2018-03-01T12:52:15.869Z,11.13
2018-03-01T12:53:15.886Z,11.53
2018-03-01T12:54:15.884Z,11.12
2018-03-01T12:55:15.897Z,10.88
2018-03-01T12:56:15.921Z,10.42
2018-03-01T12:57:15.928Z,9.98
2018-03-01T12:58:15.946Z,9.63
2018-03-01T12:59:15.959Z,9.75
2018-03-01T13:00:15.989Z,10.17
2018-03-01T13:01:15.973Z,10.10
2018-03-01T13:02:16.061Z,10.16
2018-03-01T13:03:16.007Z,9.86
2018-03-01T13:04:16.080Z,9.83
2018-03-01T13:05:16.042Z,9.68
2018-03-01T13:06:16.035Z,9.45
2018-03-01T13:07:16.056Z,9.03
2018-03-01T13:08:16.049Z,9.04
2018-03-01T13:09:16.068Z,8.88
2018-03-01T13:10:16.103Z,8.34